sensor_id;sensor_type;location;lat;lon;timestamp;P1;durP1;ratioP1;P2;durP2;ratioP2
22557;SDS011;11445;53.816;8.902;2023-04-01T00:02:12;13.20;;;7.25;;
22557;SDS011;11445;53.816;8.902;2023-04-01T00:04:39;13.20;;;7.80;;
22557;SDS011;11445;53.816;8.902;2023-04-01T00:07:06;13.80;;;8.40;;
22557;SDS011;11445;53.816;8.902;2023-04-01T00:09:33;16.77;;;8.50;;
22557;SDS011;11445;53.816;8.902;2023-04-01T00:12:02;13.98;;;8.43;;
22557;SDS011;11445;53.816;8.902;2023-04-01T00:14:29;12.70;;;7.60;;
22557;SDS011;11445;53.816;8.902;2023-04-01T00:16:56;15.02;;;7.90;;
22557;SDS011;11445;53.816;8.902;2023-04-01T00:19:23;16.30;;;7.70;;
22557;SDS011;11445;53.816;8.902;2023-04-01T00:21:50;18.70;;;8.20;;
22557;SDS011;11445;53.816;8.902;2023-04-01T00:24:17;12.38;;;7.47;;
22557;SDS011;11445;53.816;8.902;2023-04-01T00:26:44;15.82;;;7.80;;
22557;SDS011;11445;53.816;8.902;2023-04-01T00:29:14;14.00;;;7.55;;
22557;SDS011;11445;53.816;8.902;2023-04-01T00:31:41;15.02;;;9.10;;
22557;SDS011;11445;53.816;8.902;2023-04-01T00:34:08;16.10;;;7.82;;
22557;SDS011;11445;53.816;8.902;2023-04-01T00:36:35;12.38;;;8.32;;
22557;SDS011;11445;53.816;8.902;2023-04-01T00:39:02;13.48;;;8.32;;
22557;SDS011;11445;53.816;8.902;2023-04-01T00:41:29;17.50;;;7.32;;
22557;SDS011;11445;53.816;8.902;2023-04-01T00:46:41;14.45;;;7.55;;
22557;SDS011;11445;53.816;8.902;2023-04-01T00:49:08;13.70;;;7.55;;
22557;SDS011;11445;53.816;8.902;2023-04-01T00:51:36;12.70;;;7.53;;
22557;SDS011;11445;53.816;8.902;2023-04-01T00:54:05;15.77;;;7.82;;
22557;SDS011;11445;53.816;8.902;2023-04-01T00:56:35;17.83;;;8.07;;
22557;SDS011;11445;53.816;8.902;2023-04-01T00:59:06;12.45;;;7.80;;
22557;SDS011;11445;53.816;8.902;2023-04-01T01:01:37;20.02;;;7.80;;
22557;SDS011;11445;53.816;8.902;2023-04-01T01:04:04;14.55;;;7.07;;
22557;SDS011;11445;53.816;8.902;2023-04-01T01:06:36;13.70;;;8.00;;
22557;SDS011;11445;53.816;8.902;2023-04-01T01:12:06;15.73;;;7.60;;
22557;SDS011;11445;53.816;8.902;2023-04-01T01:14:39;13.38;;;7.53;;
22557;SDS011;11445;53.816;8.902;2023-04-01T01:17:22;13.68;;;7.85;;
22557;SDS011;11445;53.816;8.902;2023-04-01T01:23:03;14.85;;;7.43;;
22557;SDS011;11445;53.816;8.902;2023-04-01T01:25:56;15.27;;;7.80;;
22557;SDS011;11445;53.816;8.902;2023-04-01T01:28:37;14.18;;;7.85;;
22557;SDS011;11445;53.816;8.902;2023-04-01T01:31:17;14.63;;;8.05;;
22557;SDS011;11445;53.816;8.902;2023-04-01T01:33:52;14.02;;;7.60;;
22557;SDS011;11445;53.816;8.902;2023-04-01T01:36:29;18.17;;;8.38;;
22557;SDS011;11445;53.816;8.902;2023-04-01T01:38:59;15.43;;;7.50;;
22557;SDS011;11445;53.816;8.902;2023-04-01T01:41:27;14.77;;;8.45;;
22557;SDS011;11445;53.816;8.902;2023-04-01T01:43:56;20.38;;;8.75;;
22557;SDS011;11445;53.816;8.902;2023-04-01T01:46:26;16.13;;;8.40;;
22557;SDS011;11445;53.816;8.902;2023-04-01T01:48:56;15.57;;;8.57;;
22557;SDS011;11445;53.816;8.902;2023-04-01T01:51:26;14.57;;;8.90;;
22557;SDS011;11445;53.816;8.902;2023-04-01T01:53:56;18.08;;;9.80;;
22557;SDS011;11445;53.816;8.902;2023-04-01T01:56:23;22.70;;;8.90;;
22557;SDS011;11445;53.816;8.902;2023-04-01T01:58:54;17.42;;;8.52;;
22557;SDS011;11445;53.816;8.902;2023-04-01T02:01:25;15.43;;;9.05;;
22557;SDS011;11445;53.816;8.902;2023-04-01T02:03:54;15.68;;;8.70;;
22557;SDS011;11445;53.816;8.902;2023-04-01T02:06:23;15.57;;;9.02;;
22557;SDS011;11445;53.816;8.902;2023-04-01T02:08:54;17.20;;;8.85;;
22557;SDS011;11445;53.816;8.902;2023-04-01T02:11:24;19.08;;;9.13;;
22557;SDS011;11445;53.816;8.902;2023-04-01T02:13:56;19.17;;;9.27;;
22557;SDS011;11445;53.816;8.902;2023-04-01T02:16:31;17.10;;;9.52;;
22557;SDS011;11445;53.816;8.902;2023-04-01T02:19:01;17.10;;;9.15;;
22557;SDS011;11445;53.816;8.902;2023-04-01T02:21:32;15.25;;;8.77;;
22557;SDS011;11445;53.816;8.902;2023-04-01T02:24:04;17.48;;;9.40;;
22557;SDS011;11445;53.816;8.902;2023-04-01T02:26:34;14.75;;;8.80;;
22557;SDS011;11445;53.816;8.902;2023-04-01T02:29:01;16.15;;;9.20;;
22557;SDS011;11445;53.816;8.902;2023-04-01T02:31:31;18.70;;;9.13;;
22557;SDS011;11445;53.816;8.902;2023-04-01T02:33:59;19.50;;;9.30;;
22557;SDS011;11445;53.816;8.902;2023-04-01T02:36:26;21.35;;;10.48;;
22557;SDS011;11445;53.816;8.902;2023-04-01T02:38:53;20.63;;;9.65;;
22557;SDS011;11445;53.816;8.902;2023-04-01T02:41:25;22.58;;;9.57;;
22557;SDS011;11445;53.816;8.902;2023-04-01T02:43:52;23.13;;;10.48;;
22557;SDS011;11445;53.816;8.902;2023-04-01T02:46:20;20.80;;;9.73;;
22557;SDS011;11445;53.816;8.902;2023-04-01T02:48:47;21.20;;;10.93;;
22557;SDS011;11445;53.816;8.902;2023-04-01T02:51:14;23.55;;;10.82;;
22557;SDS011;11445;53.816;8.902;2023-04-01T02:53:41;20.45;;;10.10;;
22557;SDS011;11445;53.816;8.902;2023-04-01T02:56:08;19.38;;;10.40;;
22557;SDS011;11445;53.816;8.902;2023-04-01T02:58:36;21.23;;;11.65;;
22557;SDS011;11445;53.816;8.902;2023-04-01T03:01:03;30.45;;;12.55;;
22557;SDS011;11445;53.816;8.902;2023-04-01T03:03:30;22.88;;;12.02;;
22557;SDS011;11445;53.816;8.902;2023-04-01T03:05:57;26.15;;;12.13;;
22557;SDS011;11445;53.816;8.902;2023-04-01T03:08:25;21.90;;;11.20;;
22557;SDS011;11445;53.816;8.902;2023-04-01T03:10:52;24.52;;;11.90;;
22557;SDS011;11445;53.816;8.902;2023-04-01T03:13:19;27.15;;;11.18;;
22557;SDS011;11445;53.816;8.902;2023-04-01T03:15:47;22.88;;;11.82;;
22557;SDS011;11445;53.816;8.902;2023-04-01T03:18:14;29.95;;;11.77;;
22557;SDS011;11445;53.816;8.902;2023-04-01T03:20:41;22.48;;;12.07;;
22557;SDS011;11445;53.816;8.902;2023-04-01T03:23:08;23.05;;;11.25;;
22557;SDS011;11445;53.816;8.902;2023-04-01T03:25:35;24.88;;;11.75;;
22557;SDS011;11445;53.816;8.902;2023-04-01T03:28:03;21.85;;;11.18;;
22557;SDS011;11445;53.816;8.902;2023-04-01T03:30:30;24.10;;;12.18;;
22557;SDS011;11445;53.816;8.902;2023-04-01T03:32:58;22.45;;;11.80;;
22557;SDS011;11445;53.816;8.902;2023-04-01T03:35:26;21.60;;;12.15;;
22557;SDS011;11445;53.816;8.902;2023-04-01T03:37:53;25.77;;;12.00;;
22557;SDS011;11445;53.816;8.902;2023-04-01T03:40:21;25.75;;;11.95;;
22557;SDS011;11445;53.816;8.902;2023-04-01T03:42:48;25.70;;;12.75;;
22557;SDS011;11445;53.816;8.902;2023-04-01T03:45:15;29.85;;;12.32;;
22557;SDS011;11445;53.816;8.902;2023-04-01T03:47:42;27.58;;;13.25;;
22557;SDS011;11445;53.816;8.902;2023-04-01T03:50:11;25.45;;;13.15;;
22557;SDS011;11445;53.816;8.902;2023-04-01T03:52:38;25.83;;;13.50;;
22557;SDS011;11445;53.816;8.902;2023-04-01T03:55:06;32.67;;;14.98;;
22557;SDS011;11445;53.816;8.902;2023-04-01T03:57:33;32.63;;;14.85;;
22557;SDS011;11445;53.816;8.902;2023-04-01T04:00:00;30.63;;;13.95;;
22557;SDS011;11445;53.816;8.902;2023-04-01T04:02:27;32.05;;;15.55;;
22557;SDS011;11445;53.816;8.902;2023-04-01T04:04:54;31.58;;;15.95;;
22557;SDS011;11445;53.816;8.902;2023-04-01T04:07:22;26.02;;;15.50;;
22557;SDS011;11445;53.816;8.902;2023-04-01T04:09:49;32.97;;;15.70;;
22557;SDS011;11445;53.816;8.902;2023-04-01T04:12:16;28.40;;;15.07;;
22557;SDS011;11445;53.816;8.902;2023-04-01T04:14:43;29.73;;;14.52;;
22557;SDS011;11445;53.816;8.902;2023-04-01T04:17:10;29.92;;;15.57;;
22557;SDS011;11445;53.816;8.902;2023-04-01T04:19:41;31.55;;;15.07;;
22557;SDS011;11445;53.816;8.902;2023-04-01T04:22:08;31.05;;;15.23;;
22557;SDS011;11445;53.816;8.902;2023-04-01T04:24:36;35.05;;;16.67;;
22557;SDS011;11445;53.816;8.902;2023-04-01T04:27:04;36.33;;;15.43;;
22557;SDS011;11445;53.816;8.902;2023-04-01T04:29:31;5.97;;;5.25;;
22557;SDS011;11445;53.816;8.902;2023-04-01T04:31:58;5.22;;;3.60;;
22557;SDS011;11445;53.816;8.902;2023-04-01T04:34:25;4.57;;;3.53;;
22557;SDS011;11445;53.816;8.902;2023-04-01T04:36:52;6.82;;;3.35;;
22557;SDS011;11445;53.816;8.902;2023-04-01T04:39:19;3.35;;;3.05;;
22557;SDS011;11445;53.816;8.902;2023-04-01T04:41:47;4.32;;;3.80;;
22557;SDS011;11445;53.816;8.902;2023-04-01T04:44:14;4.53;;;3.88;;
22557;SDS011;11445;53.816;8.902;2023-04-01T04:46:42;5.68;;;3.88;;
22557;SDS011;11445;53.816;8.902;2023-04-01T04:49:09;10.68;;;4.30;;
22557;SDS011;11445;53.816;8.902;2023-04-01T04:51:36;6.55;;;4.50;;
22557;SDS011;11445;53.816;8.902;2023-04-01T04:54:03;6.50;;;4.45;;
22557;SDS011;11445;53.816;8.902;2023-04-01T04:56:31;5.43;;;4.47;;
22557;SDS011;11445;53.816;8.902;2023-04-01T04:59:00;4.97;;;3.90;;
22557;SDS011;11445;53.816;8.902;2023-04-01T05:01:27;4.65;;;4.10;;
22557;SDS011;11445;53.816;8.902;2023-04-01T05:03:54;5.88;;;4.05;;
22557;SDS011;11445;53.816;8.902;2023-04-01T05:06:21;5.20;;;3.78;;
22557;SDS011;11445;53.816;8.902;2023-04-01T05:08:48;4.20;;;3.80;;
22557;SDS011;11445;53.816;8.902;2023-04-01T05:11:18;4.60;;;3.60;;
22557;SDS011;11445;53.816;8.902;2023-04-01T05:13:46;4.60;;;3.53;;
22557;SDS011;11445;53.816;8.902;2023-04-01T05:16:15;4.85;;;3.45;;
22557;SDS011;11445;53.816;8.902;2023-04-01T05:18:44;3.55;;;3.17;;
22557;SDS011;11445;53.816;8.902;2023-04-01T05:21:12;4.00;;;3.55;;
22557;SDS011;11445;53.816;8.902;2023-04-01T05:23:39;4.40;;;3.47;;
22557;SDS011;11445;53.816;8.902;2023-04-01T05:26:07;4.32;;;3.22;;
22557;SDS011;11445;53.816;8.902;2023-04-01T05:28:35;4.38;;;3.13;;
22557;SDS011;11445;53.816;8.902;2023-04-01T05:31:03;4.15;;;2.97;;
22557;SDS011;11445;53.816;8.902;2023-04-01T05:33:32;4.68;;;2.92;;
22557;SDS011;11445;53.816;8.902;2023-04-01T05:36:05;3.20;;;2.90;;
22557;SDS011;11445;53.816;8.902;2023-04-01T05:38:33;3.85;;;2.78;;
22557;SDS011;11445;53.816;8.902;2023-04-01T05:41:00;2.83;;;2.25;;
22557;SDS011;11445;53.816;8.902;2023-04-01T05:43:28;2.50;;;2.10;;
22557;SDS011;11445;53.816;8.902;2023-04-01T05:45:56;2.38;;;2.17;;
22557;SDS011;11445;53.816;8.902;2023-04-01T05:48:23;2.67;;;2.42;;
22557;SDS011;11445;53.816;8.902;2023-04-01T05:50:51;2.38;;;2.20;;
22557;SDS011;11445;53.816;8.902;2023-04-01T05:53:19;3.28;;;2.40;;
22557;SDS011;11445;53.816;8.902;2023-04-01T05:55:47;2.33;;;2.13;;
22557;SDS011;11445;53.816;8.902;2023-04-01T05:58:14;2.42;;;2.00;;
22557;SDS011;11445;53.816;8.902;2023-04-01T06:00:41;1.88;;;1.67;;
22557;SDS011;11445;53.816;8.902;2023-04-01T06:03:08;2.15;;;1.52;;
22557;SDS011;11445;53.816;8.902;2023-04-01T06:05:38;5.38;;;1.88;;
22557;SDS011;11445;53.816;8.902;2023-04-01T06:08:11;2.15;;;1.95;;
22557;SDS011;11445;53.816;8.902;2023-04-01T06:10:44;2.78;;;2.05;;
22557;SDS011;11445;53.816;8.902;2023-04-01T06:13:24;2.15;;;1.80;;
22557;SDS011;11445;53.816;8.902;2023-04-01T06:16:04;2.50;;;1.88;;
22557;SDS011;11445;53.816;8.902;2023-04-01T06:18:44;2.03;;;1.55;;
22557;SDS011;11445;53.816;8.902;2023-04-01T06:21:26;1.55;;;1.45;;
22557;SDS011;11445;53.816;8.902;2023-04-01T06:24:19;2.45;;;1.77;;
22557;SDS011;11445;53.816;8.902;2023-04-01T06:27:13;2.63;;;1.60;;
22557;SDS011;11445;53.816;8.902;2023-04-01T06:29:54;1.88;;;1.63;;
22557;SDS011;11445;53.816;8.902;2023-04-01T06:32:34;1.85;;;1.67;;
22557;SDS011;11445;53.816;8.902;2023-04-01T06:35:23;2.13;;;1.40;;
22557;SDS011;11445;53.816;8.902;2023-04-01T06:38:01;1.60;;;1.45;;
22557;SDS011;11445;53.816;8.902;2023-04-01T06:40:45;1.60;;;1.50;;
22557;SDS011;11445;53.816;8.902;2023-04-01T06:43:25;1.83;;;1.40;;
22557;SDS011;11445;53.816;8.902;2023-04-01T06:45:57;1.50;;;1.40;;
22557;SDS011;11445;53.816;8.902;2023-04-01T06:48:33;1.50;;;1.40;;
22557;SDS011;11445;53.816;8.902;2023-04-01T06:51:10;2.58;;;1.30;;
22557;SDS011;11445;53.816;8.902;2023-04-01T06:53:46;1.30;;;1.20;;
22557;SDS011;11445;53.816;8.902;2023-04-01T06:56:20;1.30;;;1.15;;
22557;SDS011;11445;53.816;8.902;2023-04-01T06:58:51;3.95;;;1.40;;
22557;SDS011;11445;53.816;8.902;2023-04-01T07:01:21;1.40;;;1.30;;
22557;SDS011;11445;53.816;8.902;2023-04-01T07:03:53;4.00;;;1.38;;
22557;SDS011;11445;53.816;8.902;2023-04-01T07:06:25;1.00;;;0.90;;
22557;SDS011;11445;53.816;8.902;2023-04-01T07:08:56;1.27;;;0.98;;
22557;SDS011;11445;53.816;8.902;2023-04-01T07:11:30;2.00;;;1.17;;
22557;SDS011;11445;53.816;8.902;2023-04-01T07:14:00;1.70;;;0.70;;
22557;SDS011;11445;53.816;8.902;2023-04-01T07:16:30;0.80;;;0.80;;
22557;SDS011;11445;53.816;8.902;2023-04-01T07:19:01;1.58;;;0.82;;
22557;SDS011;11445;53.816;8.902;2023-04-01T07:21:33;0.80;;;0.80;;
22557;SDS011;11445;53.816;8.902;2023-04-01T07:24:09;0.93;;;0.93;;
22557;SDS011;11445;53.816;8.902;2023-04-01T07:26:43;1.30;;;0.80;;
22557;SDS011;11445;53.816;8.902;2023-04-01T07:29:12;1.20;;;1.10;;
22557;SDS011;11445;53.816;8.902;2023-04-01T07:34:31;0.80;;;0.80;;
22557;SDS011;11445;53.816;8.902;2023-04-01T07:37:05;2.05;;;0.93;;
22557;SDS011;11445;53.816;8.902;2023-04-01T07:39:37;2.00;;;1.00;;
22557;SDS011;11445;53.816;8.902;2023-04-01T07:42:16;0.90;;;0.90;;
22557;SDS011;11445;53.816;8.902;2023-04-01T07:44:51;1.25;;;1.00;;
22557;SDS011;11445;53.816;8.902;2023-04-01T07:47:29;1.63;;;0.98;;
22557;SDS011;11445;53.816;8.902;2023-04-01T07:50:10;3.03;;;1.05;;
22557;SDS011;11445;53.816;8.902;2023-04-01T07:52:46;0.82;;;0.82;;
22557;SDS011;11445;53.816;8.902;2023-04-01T07:55:21;0.70;;;0.70;;
22557;SDS011;11445;53.816;8.902;2023-04-01T07:57:56;1.98;;;0.80;;
22557;SDS011;11445;53.816;8.902;2023-04-01T08:00:29;0.63;;;0.63;;
22557;SDS011;11445;53.816;8.902;2023-04-01T08:03:06;0.82;;;0.82;;
22557;SDS011;11445;53.816;8.902;2023-04-01T08:05:50;0.95;;;0.93;;
22557;SDS011;11445;53.816;8.902;2023-04-01T08:08:25;1.27;;;1.08;;
22557;SDS011;11445;53.816;8.902;2023-04-01T08:11:00;1.77;;;0.90;;
22557;SDS011;11445;53.816;8.902;2023-04-01T08:13:39;1.10;;;1.00;;
22557;SDS011;11445;53.816;8.902;2023-04-01T08:16:12;0.82;;;0.80;;
22557;SDS011;11445;53.816;8.902;2023-04-01T08:18:46;0.88;;;0.80;;
22557;SDS011;11445;53.816;8.902;2023-04-01T08:21:20;1.63;;;1.10;;
22557;SDS011;11445;53.816;8.902;2023-04-01T08:23:51;1.67;;;1.00;;
22557;SDS011;11445;53.816;8.902;2023-04-01T08:26:24;1.13;;;1.02;;
22557;SDS011;11445;53.816;8.902;2023-04-01T08:28:59;0.80;;;0.80;;
22557;SDS011;11445;53.816;8.902;2023-04-01T08:33:58;1.02;;;0.88;;
22557;SDS011;11445;53.816;8.902;2023-04-01T08:36:31;1.10;;;0.90;;
22557;SDS011;11445;53.816;8.902;2023-04-01T08:39:03;0.80;;;0.80;;
22557;SDS011;11445;53.816;8.902;2023-04-01T08:44:26;0.90;;;0.90;;
22557;SDS011;11445;53.816;8.902;2023-04-01T08:47:14;1.42;;;0.85;;
22557;SDS011;11445;53.816;8.902;2023-04-01T08:49:56;1.10;;;0.70;;
22557;SDS011;11445;53.816;8.902;2023-04-01T08:52:43;1.95;;;0.90;;
22557;SDS011;11445;53.816;8.902;2023-04-01T08:55:20;1.48;;;0.88;;
22557;SDS011;11445;53.816;8.902;2023-04-01T09:01:09;1.35;;;0.90;;
22557;SDS011;11445;53.816;8.902;2023-04-01T09:03:47;1.38;;;1.05;;
22557;SDS011;11445;53.816;8.902;2023-04-01T09:06:34;0.85;;;0.60;;
22557;SDS011;11445;53.816;8.902;2023-04-01T09:09:15;0.88;;;0.65;;
22557;SDS011;11445;53.816;8.902;2023-04-01T09:18:14;0.60;;;0.60;;
22557;SDS011;11445;53.816;8.902;2023-04-01T09:21:24;1.08;;;0.65;;
22557;SDS011;11445;53.816;8.902;2023-04-01T09:27:05;0.65;;;0.60;;
22557;SDS011;11445;53.816;8.902;2023-04-01T09:30:03;0.77;;;0.60;;
22557;SDS011;11445;53.816;8.902;2023-04-01T09:32:52;0.82;;;0.70;;
22557;SDS011;11445;53.816;8.902;2023-04-01T09:35:45;1.08;;;0.70;;
22557;SDS011;11445;53.816;8.902;2023-04-01T09:38:19;0.73;;;0.73;;
22557;SDS011;11445;53.816;8.902;2023-04-01T09:40:52;1.58;;;0.70;;
22557;SDS011;11445;53.816;8.902;2023-04-01T09:43:28;0.70;;;0.70;;
22557;SDS011;11445;53.816;8.902;2023-04-01T09:46:10;2.38;;;0.80;;
22557;SDS011;11445;53.816;8.902;2023-04-01T09:48:53;0.80;;;0.80;;
22557;SDS011;11445;53.816;8.902;2023-04-01T09:51:37;0.60;;;0.60;;
22557;SDS011;11445;53.816;8.902;2023-04-01T09:54:19;1.45;;;0.82;;
22557;SDS011;11445;53.816;8.902;2023-04-01T10:00:10;0.60;;;0.57;;
22557;SDS011;11445;53.816;8.902;2023-04-01T10:03:12;0.52;;;0.52;;
22557;SDS011;11445;53.816;8.902;2023-04-01T10:06:22;0.50;;;0.50;;
22557;SDS011;11445;53.816;8.902;2023-04-01T10:09:23;0.50;;;0.50;;
22557;SDS011;11445;53.816;8.902;2023-04-01T10:24:28;0.80;;;0.80;;
22557;SDS011;11445;53.816;8.902;2023-04-01T10:27:32;1.10;;;0.70;;
22557;SDS011;11445;53.816;8.902;2023-04-01T10:33:38;1.52;;;0.70;;
22557;SDS011;11445;53.816;8.902;2023-04-01T10:54:17;3.42;;;1.77;;
22557;SDS011;11445;53.816;8.902;2023-04-01T10:56:54;1.63;;;1.40;;
22557;SDS011;11445;53.816;8.902;2023-04-01T11:05:49;3.58;;;1.50;;
22557;SDS011;11445;53.816;8.902;2023-04-01T11:14:57;4.20;;;1.40;;
22557;SDS011;11445;53.816;8.902;2023-04-01T11:18:11;3.35;;;1.75;;
22557;SDS011;11445;53.816;8.902;2023-04-01T11:30:39;4.53;;;2.10;;
22557;SDS011;11445;53.816;8.902;2023-04-01T11:33:16;4.25;;;2.60;;
22557;SDS011;11445;53.816;8.902;2023-04-01T11:35:52;3.10;;;2.20;;
22557;SDS011;11445;53.816;8.902;2023-04-01T11:38:35;3.70;;;2.90;;
22557;SDS011;11445;53.816;8.902;2023-04-01T11:41:24;5.03;;;3.08;;
22557;SDS011;11445;53.816;8.902;2023-04-01T11:44:04;4.05;;;2.75;;
22557;SDS011;11445;53.816;8.902;2023-04-01T11:46:46;7.15;;;3.30;;
22557;SDS011;11445;53.816;8.902;2023-04-01T11:49:27;4.47;;;3.45;;
22557;SDS011;11445;53.816;8.902;2023-04-01T11:52:08;6.88;;;3.38;;
22557;SDS011;11445;53.816;8.902;2023-04-01T11:57:53;8.48;;;3.30;;
22557;SDS011;11445;53.816;8.902;2023-04-01T12:00:57;5.53;;;3.22;;
22557;SDS011;11445;53.816;8.902;2023-04-01T12:06:34;8.85;;;4.28;;
22557;SDS011;11445;53.816;8.902;2023-04-01T12:09:08;6.72;;;3.50;;
22557;SDS011;11445;53.816;8.902;2023-04-01T12:11:45;3.85;;;3.25;;
22557;SDS011;11445;53.816;8.902;2023-04-01T12:14:20;4.10;;;3.28;;
22557;SDS011;11445;53.816;8.902;2023-04-01T12:16:59;9.52;;;4.10;;
22557;SDS011;11445;53.816;8.902;2023-04-01T12:19:33;15.95;;;4.68;;
22557;SDS011;11445;53.816;8.902;2023-04-01T12:25:06;12.63;;;4.78;;
22557;SDS011;11445;53.816;8.902;2023-04-01T12:27:51;6.93;;;4.13;;
22557;SDS011;11445;53.816;8.902;2023-04-01T12:30:32;12.52;;;5.03;;
22557;SDS011;11445;53.816;8.902;2023-04-01T12:35:47;8.15;;;4.57;;
22557;SDS011;11445;53.816;8.902;2023-04-01T12:38:30;16.30;;;4.72;;
22557;SDS011;11445;53.816;8.902;2023-04-01T12:41:07;11.30;;;5.40;;
22557;SDS011;11445;53.816;8.902;2023-04-01T12:43:54;16.23;;;6.40;;
22557;SDS011;11445;53.816;8.902;2023-04-01T12:46:52;13.68;;;4.95;;
22557;SDS011;11445;53.816;8.902;2023-04-01T12:49:44;7.70;;;4.40;;
22557;SDS011;11445;53.816;8.902;2023-04-01T12:52:25;8.80;;;4.55;;
22557;SDS011;11445;53.816;8.902;2023-04-01T12:55:18;10.82;;;4.10;;
22557;SDS011;11445;53.816;8.902;2023-04-01T12:58:12;13.40;;;4.72;;
22557;SDS011;11445;53.816;8.902;2023-04-01T13:07:07;8.93;;;4.50;;
22557;SDS011;11445;53.816;8.902;2023-04-01T13:09:57;11.43;;;4.43;;
22557;SDS011;11445;53.816;8.902;2023-04-01T13:12:39;9.50;;;4.28;;
22557;SDS011;11445;53.816;8.902;2023-04-01T13:15:23;12.50;;;4.72;;
22557;SDS011;11445;53.816;8.902;2023-04-01T13:17:57;9.63;;;4.57;;
22557;SDS011;11445;53.816;8.902;2023-04-01T13:20:35;11.07;;;4.55;;
22557;SDS011;11445;53.816;8.902;2023-04-01T13:23:10;10.98;;;4.80;;
22557;SDS011;11445;53.816;8.902;2023-04-01T13:25:49;8.63;;;4.60;;
22557;SDS011;11445;53.816;8.902;2023-04-01T13:28:21;9.75;;;4.07;;
22557;SDS011;11445;53.816;8.902;2023-04-01T13:30:54;12.57;;;4.35;;
22557;SDS011;11445;53.816;8.902;2023-04-01T13:33:30;6.28;;;4.03;;
22557;SDS011;11445;53.816;8.902;2023-04-01T13:36:08;10.18;;;4.28;;
22557;SDS011;11445;53.816;8.902;2023-04-01T13:38:59;8.60;;;4.35;;
22557;SDS011;11445;53.816;8.902;2023-04-01T13:44:31;8.27;;;4.07;;
22557;SDS011;11445;53.816;8.902;2023-04-01T13:47:07;9.32;;;4.60;;
22557;SDS011;11445;53.816;8.902;2023-04-01T13:49:58;6.85;;;4.20;;
22557;SDS011;11445;53.816;8.902;2023-04-01T13:52:51;7.93;;;4.22;;
22557;SDS011;11445;53.816;8.902;2023-04-01T13:55:46;9.40;;;4.20;;
22557;SDS011;11445;53.816;8.902;2023-04-01T13:58:33;6.95;;;4.57;;
22557;SDS011;11445;53.816;8.902;2023-04-01T14:01:27;10.10;;;4.30;;
22557;SDS011;11445;53.816;8.902;2023-04-01T14:06:59;10.75;;;4.43;;
22557;SDS011;11445;53.816;8.902;2023-04-01T14:12:29;15.68;;;4.65;;
22557;SDS011;11445;53.816;8.902;2023-04-01T14:15:16;16.50;;;5.10;;
22557;SDS011;11445;53.816;8.902;2023-04-01T14:18:21;9.90;;;4.88;;
22557;SDS011;11445;53.816;8.902;2023-04-01T14:21:25;14.77;;;5.38;;
22557;SDS011;11445;53.816;8.902;2023-04-01T14:24:08;11.52;;;4.80;;
22557;SDS011;11445;53.816;8.902;2023-04-01T14:27:06;11.93;;;4.57;;
22557;SDS011;11445;53.816;8.902;2023-04-01T14:29:45;13.60;;;5.50;;
22557;SDS011;11445;53.816;8.902;2023-04-01T14:32:24;10.45;;;5.07;;
22557;SDS011;11445;53.816;8.902;2023-04-01T14:35:10;7.97;;;4.25;;
22557;SDS011;11445;53.816;8.902;2023-04-01T14:37:55;15.40;;;5.45;;
22557;SDS011;11445;53.816;8.902;2023-04-01T14:40:34;11.05;;;5.05;;
22557;SDS011;11445;53.816;8.902;2023-04-01T14:43:21;9.45;;;5.03;;
22557;SDS011;11445;53.816;8.902;2023-04-01T14:46:06;13.50;;;5.28;;
22557;SDS011;11445;53.816;8.902;2023-04-01T14:48:49;13.35;;;4.85;;
22557;SDS011;11445;53.816;8.902;2023-04-01T14:51:22;12.52;;;5.35;;
22557;SDS011;11445;53.816;8.902;2023-04-01T14:53:58;14.85;;;5.30;;
22557;SDS011;11445;53.816;8.902;2023-04-01T14:56:39;12.00;;;4.85;;
22557;SDS011;11445;53.816;8.902;2023-04-01T14:59:14;11.35;;;4.93;;
22557;SDS011;11445;53.816;8.902;2023-04-01T15:04:30;11.02;;;4.65;;
22557;SDS011;11445;53.816;8.902;2023-04-01T15:07:23;13.57;;;5.30;;
22557;SDS011;11445;53.816;8.902;2023-04-01T15:10:09;8.57;;;4.43;;
22557;SDS011;11445;53.816;8.902;2023-04-01T15:12:50;8.50;;;4.30;;
22557;SDS011;11445;53.816;8.902;2023-04-01T15:15:29;13.63;;;4.95;;
22557;SDS011;11445;53.816;8.902;2023-04-01T15:18:15;9.27;;;4.57;;
22557;SDS011;11445;53.816;8.902;2023-04-01T15:21:02;10.60;;;4.50;;
22557;SDS011;11445;53.816;8.902;2023-04-01T15:23:45;8.48;;;4.70;;
22557;SDS011;11445;53.816;8.902;2023-04-01T15:26:26;8.70;;;4.55;;
22557;SDS011;11445;53.816;8.902;2023-04-01T15:29:17;8.65;;;4.07;;
22557;SDS011;11445;53.816;8.902;2023-04-01T15:31:58;10.27;;;4.80;;
22557;SDS011;11445;53.816;8.902;2023-04-01T15:34:31;8.80;;;4.43;;
22557;SDS011;11445;53.816;8.902;2023-04-01T15:37:04;8.85;;;4.40;;
22557;SDS011;11445;53.816;8.902;2023-04-01T15:39:46;10.57;;;4.68;;
22557;SDS011;11445;53.816;8.902;2023-04-01T15:42:42;7.25;;;4.13;;
22557;SDS011;11445;53.816;8.902;2023-04-01T15:45:26;8.02;;;4.60;;
22557;SDS011;11445;53.816;8.902;2023-04-01T15:48:06;10.20;;;4.80;;
22557;SDS011;11445;53.816;8.902;2023-04-01T15:50:54;9.23;;;4.63;;
22557;SDS011;11445;53.816;8.902;2023-04-01T15:53:35;12.07;;;4.45;;
22557;SDS011;11445;53.816;8.902;2023-04-01T15:56:18;10.88;;;4.68;;
22557;SDS011;11445;53.816;8.902;2023-04-01T15:58:54;11.15;;;4.43;;
22557;SDS011;11445;53.816;8.902;2023-04-01T16:01:35;13.88;;;4.10;;
22557;SDS011;11445;53.816;8.902;2023-04-01T16:04:17;13.55;;;5.03;;
22557;SDS011;11445;53.816;8.902;2023-04-01T16:07:03;7.15;;;3.97;;
22557;SDS011;11445;53.816;8.902;2023-04-01T16:09:50;9.68;;;3.90;;
22557;SDS011;11445;53.816;8.902;2023-04-01T16:12:35;11.82;;;4.60;;
22557;SDS011;11445;53.816;8.902;2023-04-01T16:15:16;7.82;;;4.22;;
22557;SDS011;11445;53.816;8.902;2023-04-01T16:17:58;10.43;;;4.40;;
22557;SDS011;11445;53.816;8.902;2023-04-01T16:20:55;13.35;;;4.63;;
22557;SDS011;11445;53.816;8.902;2023-04-01T16:23:26;7.55;;;3.95;;
22557;SDS011;11445;53.816;8.902;2023-04-01T16:26:02;9.80;;;4.05;;
22557;SDS011;11445;53.816;8.902;2023-04-01T16:28:36;8.80;;;4.00;;
22557;SDS011;11445;53.816;8.902;2023-04-01T16:31:10;7.43;;;4.40;;
22557;SDS011;11445;53.816;8.902;2023-04-01T16:33:44;10.35;;;4.45;;
22557;SDS011;11445;53.816;8.902;2023-04-01T16:36:20;7.55;;;4.03;;
22557;SDS011;11445;53.816;8.902;2023-04-01T16:39:06;9.70;;;4.00;;
22557;SDS011;11445;53.816;8.902;2023-04-01T16:41:49;9.93;;;4.00;;
22557;SDS011;11445;53.816;8.902;2023-04-01T16:44:21;8.98;;;3.75;;
22557;SDS011;11445;53.816;8.902;2023-04-01T16:46:50;8.77;;;4.45;;
22557;SDS011;11445;53.816;8.902;2023-04-01T16:49:28;9.80;;;3.70;;
22557;SDS011;11445;53.816;8.902;2023-04-01T16:52:15;4.18;;;3.25;;
22557;SDS011;11445;53.816;8.902;2023-04-01T16:54:44;4.93;;;2.92;;
22557;SDS011;11445;53.816;8.902;2023-04-01T16:57:21;8.80;;;3.35;;
22557;SDS011;11445;53.816;8.902;2023-04-01T16:59:56;9.48;;;3.78;;
22557;SDS011;11445;53.816;8.902;2023-04-01T17:02:30;6.93;;;3.58;;
22557;SDS011;11445;53.816;8.902;2023-04-01T17:05:03;5.47;;;2.75;;
22557;SDS011;11445;53.816;8.902;2023-04-01T17:07:35;8.40;;;2.78;;
22557;SDS011;11445;53.816;8.902;2023-04-01T17:13:06;6.57;;;2.92;;
22557;SDS011;11445;53.816;8.902;2023-04-01T17:18:20;6.13;;;3.20;;
22557;SDS011;11445;53.816;8.902;2023-04-01T17:20:55;9.95;;;3.05;;
22557;SDS011;11445;53.816;8.902;2023-04-01T17:23:27;6.68;;;3.33;;
22557;SDS011;11445;53.816;8.902;2023-04-01T17:26:04;7.57;;;3.28;;
22557;SDS011;11445;53.816;8.902;2023-04-01T17:28:43;7.85;;;3.28;;
22557;SDS011;11445;53.816;8.902;2023-04-01T17:31:17;6.90;;;3.03;;
22557;SDS011;11445;53.816;8.902;2023-04-01T17:33:57;7.00;;;2.67;;
22557;SDS011;11445;53.816;8.902;2023-04-01T17:36:53;9.88;;;2.90;;